KPTB

Dinwiddie County Airport

Petersburg, Virginia, USA
METAR KPTB 231042Z AUTO 16007KT 10SM -RA SCT012 BKN029 OVC090 16/14 A2976 RMK AO2 P0001
Observed Flight Rules
Jan-23 @ 10:42 UTC (an hour ago) Marginal Visual Flight Rules
Wind Visibility Clouds Conditions
160° at 7 knots 10 miles
  • Scattered at 1,200' AGL
  • Broken at 2,900' AGL
  • Overcast at 9,000' AGL
  • Light Rain
Temperatures Readings Precipitation
Current 16°C / 61°F
Dewpoint 14°C / 57°F
Humidity 88%
Altimeter 29.76" Hg
Pressure 1008 hPa
Elevation 59
Current Rain 0.01
METAR KPTB 231042Z AUTO 16007KT 10SM -RA SCT012 BKN029 OVC090 16/14 A2976 RMK AO2 P0001
Observed Flight Rules
Jan-23 @ 10:42 UTC
(an hour ago)
MVFR
Wind Visibility
160° at 7 knots 10 miles
Clouds
  • Scattered at 1,200' AGL
  • Broken at 2,900' AGL
  • Overcast at 9,000' AGL
Conditions
  • Light Rain
Temperature Dewpoint
16°C / 61°F 14°C / 57°F
Humidity Altimeter Pressure
88% 29.76" Hg 1008 hPa
Current Rain
0.01